Terminal Aerodrome Forecast
Issued by NWS

Home | Current Version | Previous Version | Text Only | Print | Product List | Glossary Off
Versions: 1 2 3 4 5 6 7 8 9 10 11 12 13 14 15 16

000
FTUS43 KGRB 222320
TAFCWA
TAF
KCWA 222320Z 2300/2324 22008KT P6SM SCT250
     FM230100 VRB03KT P6SM BKN250
     FM231400 21008KT P6SM BKN200
     FM232000 23010KT P6SM SCT060 BKN100=

USA.gov is the U.S. government's official web portal to all federal, state and local government web resources and services.